Aberdeen, United Kingdom

9:27 PM BST on July 29, 2015 (GMT +0100)
Stoneywood | | Change Station
CLOSE
Current Station
Personal Weather Station
Location: Aberdeen,
Elevation: 200 ft
Nearby Weather Stations

Elev 200 ft 57.19 °N, 2.18 °W | Updated 15 seconds ago

Overcast
Overcast
51.6 °F
Feels Like 51.6 °F
N
3.4
Wind Variable Wind from NE
Gusts 4.9 mph

Today
High -- | Low -- °F
--% Chance of Precip.
Yesterday
High -- | Low -- °F
Precip. -- in
4:59 AM 9:29 PM
Waxing Gibbous, 96% visible
Pressure 29.92 in
Visibility 4.3 miles
Clouds Scattered Clouds 1400 ft
Mostly Cloudy 2500 ft
Dew Point 47 °F
Humidity 83%
Rainfall 0.00 in
Snow Depth Not available.
UV 0.0 out of 12
Pollen Not available.
Air Quality Not available.
Flu Activity Not available.
METAR EGPD 292020Z 33014KT 7000 -SHRA SCT014 BKN025 10/08 Q1013 NOSIG

More Conditions Fewer Conditions

Pressure 29.92 in
Visibility 4.3 miles
Clouds Scattered Clouds 1400 ft
Mostly Cloudy 2500 ft
Dew Point 47 °F
Humidity 83%
Rainfall 0.00 in
Snow Depth Not available.
UV 0.0 out of 12
Pollen Not available.
Air Quality Not available.
Flu Activity Not available.
METAR EGPD 292020Z 33014KT 7000 -SHRA SCT014 BKN025 10/08 Q1013 NOSIG

More Conditions Fewer Conditions

10-Day Weather Forecast

×

Almanac

Astronomy

Jul. 29, 2015 Rise Set
Actual Time
Civil Twilight
Nautical Twilight
Astronomical Twilight
Moon
Length of Visible Light
Length of Day
Tomorrow will be .
, % of the Moon is Illuminated

Today's Extremes

Country Highs Country Lows

Community

WunderPhotos

Upload Photos

1,842,162 photos uploaded!

WunderBlogs® & News

Nearby

Air Quality

  Air Quality AQ Index Pollutant
Not available.

Snow Depth

Station Depth Elevation

Earthquake Activity

City Distance Mag. Time & Date
Minimum magnitude displayed is 2.5.

Coastal Water Temperatures

Place Temperature

Stations

Nearby Weather Stations

Station Location Temp. Windchill Dew Point Humidity Wind Precip. Elev Updated Type